Terminal Aerodrome Forecast
Issued by NWS

Home | Current Version | Previous Version | Text Only | Print | Product List | Glossary On
Versions: 1 2 3 4 5 6 7 8 9 10 11 12 13 14 15
000
FTAK31 PAJN 281127
TAFASI
TAF
PASI 281127Z 2812/2912 VRB04KT P6SM SCT012 OVC025
      TEMPO 2812/2816 BKN012
     FM281800 24005KT P6SM BKN030 OVC100
     FM290000 21005KT P6SM SCT030 OVC100
     FM290700 11004KT P6SM OVC080=

USA.gov is the U.S. government's official web portal to all federal, state and local government web resources and services.